| Date | Time | Temp. (oF) | Dew Point (oF) | Rel. Hum. (%) | Press. (in.) | Wind Dir. (deg.) | Wind Speed (mph) | Hourly Rainfall (i n.) |
|
|---|---|---|---|---|---|---|---|---|---|
| 1 | 04/17 | 24:00 | 48 | 34 | 59 | 29.73 | 630 | 0 | 0.00 |
| 2 | 04/16 | 23:00 | 49 | 34 | 57 | 29.70 | 630 | 0 | 0.00 |
| 3 | 04/16 | 22:00 | 49 | 33 | 56 | 29.69 | 630 | 0 | 0.00 |
| 4 | 04/16 | 21:00 | 50 | 33 | 54 | 29.65 | 630 | 0 | 0.00 |
| 5 | 04/16 | 20:00 | 53 | 36 | 53 | 29.64 | 630 | 0 | 0.00 |
| 6 | 04/16 | 19:00 | 56 | 34 | 45 | 29.64 | 630 | 0 | 0.00 |
| 7 | 04/16 | 18:00 | 58 | 36 | 44 | 29.61 | 630 | 0 | 0.00 |
| 8 | 04/16 | 17:00 | 53 | 46 | 79 | 29.57 | 630 | 0 | 0.00 |
| 9 | 04/16 | 16:00 | 49 | 44 | 84 | 29.58 | 110 | 2 | 0.02 |
| 10 | 04/16 | 15:00 | 54 | 48 | 83 | 29.58 | 130 | 1 | 0.01 |
| 11 | 04/16 | 14:00 | 55 | 48 | 78 | 29.61 | 180 | 4 | 0.00 |
| 12 | 04/16 | 13:00 | 54 | 46 | 77 | 29.60 | 140 | 1 | 0.00 |
| 13 | 04/16 | 12:00 | 53 | 46 | 79 | 29.60 | 140 | 4 | 0.00 |
| 14 | 04/16 | 11:00 | 52 | 46 | 82 | 29.63 | 330 | 6 | 0.00 |
| 15 | 04/16 | 10:00 | 49 | 45 | 89 | 29.59 | 110 | 2 | 0.00 |
| 16 | 04/16 | 09:00 | 48 | 44 | 89 | 29.61 | 230 | 2 | 0.00 |
| 17 | 04/16 | 08:00 | 48 | 44 | 88 | 29.63 | 230 | 0 | 0.00 |
| 18 | 04/16 | 07:00 | 48 | 44 | 87 | 29.61 | 230 | 0 | 0.00 |
| 19 | 04/16 | 06:00 | 48 | 44 | 87 | 29.59 | 230 | 0 | 0.00 |
| 20 | 04/16 | 05:00 | 48 | 44 | 87 | 29.58 | 230 | 0 | 0.00 |
| 21 | 04/16 | 04:00 | 48 | 43 | 84 | 29.58 | 230 | 0 | 0.00 |
| 22 | 04/16 | 03:00 | 48 | 43 | 85 | 29.58 | 230 | 0 | 0.00 |
| 23 | 04/16 | 02:00 | 48 | 44 | 86 | 29.60 | 230 | 0 | 0.01 |
| 24 | 04/16 | 01:00 | 48 | 43 | 83 | 29.62 | 230 | 0 | 0.00 |